createdAt,value
2018-07-20T00:01:27.886Z,101187.94
2018-07-20T00:03:56.803Z,101183.84
2018-07-20T00:06:25.715Z,101176.49
2018-07-20T00:08:54.743Z,101169.08
2018-07-20T00:11:23.657Z,101170.42
2018-07-20T00:13:52.941Z,101167.96
2018-07-20T00:16:22.212Z,101166.91
2018-07-20T00:18:51.419Z,101169.13
2018-07-20T00:21:20.736Z,101174.90
2018-07-20T00:23:49.886Z,101167.52
2018-07-20T00:26:18.889Z,101169.70
2018-07-20T00:28:47.809Z,101168.05
2018-07-20T00:31:16.715Z,101164.76
2018-07-20T00:33:49.228Z,101160.66
2018-07-20T00:36:18.167Z,101157.69
2018-07-20T00:38:47.088Z,101152.74
2018-07-20T00:41:15.969Z,101147.27
2018-07-20T00:43:44.877Z,101147.56
2018-07-20T00:46:13.774Z,101148.11
2018-07-20T00:48:42.677Z,101144.55
2018-07-20T00:51:11.566Z,101144.05
2018-07-20T00:53:40.443Z,101140.75
2018-07-20T00:56:09.358Z,101145.69
2018-07-20T00:58:38.252Z,101141.33
2018-07-20T01:01:07.153Z,101146.79
2018-07-20T01:03:36.040Z,101148.42
2018-07-20T01:06:05.309Z,101145.45
2018-07-20T01:08:34.236Z,101142.16
2018-07-20T01:11:03.162Z,101144.91
2018-07-20T01:13:35.235Z,101149.02
2018-07-20T01:16:04.430Z,101137.25
2018-07-20T01:18:33.326Z,101141.63
2018-07-20T01:21:02.229Z,101135.63
2018-07-20T01:23:31.409Z,101141.35
2018-07-20T01:26:00.570Z,101143.23
2018-07-20T01:28:29.726Z,101137.78
2018-07-20T01:30:58.856Z,101136.17
2018-07-20T01:33:27.737Z,101138.90
2018-07-20T01:35:56.615Z,101139.95
2018-07-20T01:38:25.561Z,101136.70
2018-07-20T01:40:54.461Z,101138.59
2018-07-20T01:43:23.330Z,101136.13
2018-07-20T01:45:52.230Z,101137.22
2018-07-20T01:48:21.136Z,101135.84
2018-07-20T01:50:50.070Z,101133.67
2018-07-20T01:53:18.980Z,101139.69
2018-07-20T01:55:47.955Z,101136.39
2018-07-20T01:58:16.818Z,101140.20
2018-07-20T02:00:45.769Z,101137.48
2018-07-20T02:03:14.653Z,101127.64
2018-07-20T02:05:43.573Z,101130.08
2018-07-20T02:08:12.519Z,101121.37
2018-07-20T02:10:41.420Z,101121.65
2018-07-20T02:13:10.823Z,101124.38
2018-07-20T02:15:39.749Z,101116.98
2018-07-20T02:18:08.610Z,101119.97
2018-07-20T02:20:37.518Z,101118.61
2018-07-20T02:23:06.478Z,101119.96
2018-07-20T02:25:35.523Z,101118.59
2018-07-20T02:28:04.647Z,101119.13
2018-07-20T02:30:33.804Z,101115.56
2018-07-20T02:33:02.967Z,101114.47
2018-07-20T02:35:31.883Z,101115.00
2018-07-20T02:38:00.885Z,101114.20
2018-07-20T02:40:29.782Z,101110.92
2018-07-20T02:42:58.671Z,101108.47
2018-07-20T02:45:27.608Z,101113.56
2018-07-20T02:47:56.564Z,101104.30
2018-07-20T02:50:25.472Z,101103.77
2018-07-20T02:52:54.608Z,101104.91
2018-07-20T02:55:23.784Z,101105.14
2018-07-20T02:57:52.962Z,101104.00
2018-07-20T03:00:22.209Z,101097.75
2018-07-20T03:02:51.306Z,101095.36
2018-07-20T03:05:20.204Z,101097.53
2018-07-20T03:07:49.083Z,101094.80
2018-07-20T03:10:18.070Z,101093.38
2018-07-20T03:12:47.033Z,101095.30
2018-07-20T03:15:15.930Z,101093.71
2018-07-20T03:17:44.833Z,101096.38
2018-07-20T03:20:13.702Z,101090.65
2018-07-20T03:22:42.632Z,101092.27
2018-07-20T03:25:11.524Z,101091.98
2018-07-20T03:27:40.473Z,101094.19
2018-07-20T03:30:09.359Z,101091.97
2018-07-20T03:32:38.329Z,101090.58
2018-07-20T03:35:07.307Z,101092.76
2018-07-20T03:37:36.364Z,101095.22
2018-07-20T03:40:05.297Z,101091.95
2018-07-20T03:42:34.182Z,101091.97
2018-07-20T03:45:03.153Z,101090.02
2018-07-20T03:47:32.045Z,101084.63
2018-07-20T03:50:00.951Z,101088.14
2018-07-20T03:52:29.837Z,101088.41
2018-07-20T03:54:58.785Z,101079.64
2018-07-20T03:57:27.695Z,101082.38
2018-07-20T03:59:56.597Z,101085.67
2018-07-20T04:02:25.557Z,101079.33
2018-07-20T04:04:54.417Z,101081.77
2018-07-20T04:07:23.334Z,101081.26
2018-07-20T04:09:52.245Z,101076.07
2018-07-20T04:12:21.150Z,101074.16
2018-07-20T04:14:50.050Z,101071.71
2018-07-20T04:17:18.981Z,101066.55
2018-07-20T04:19:47.905Z,101073.63
2018-07-20T04:22:16.795Z,101067.66
2018-07-20T04:24:45.718Z,101067.11
2018-07-20T04:27:14.752Z,101070.65
2018-07-20T04:29:47.208Z,101069.31
2018-07-20T04:32:16.111Z,101060.59
2018-07-20T04:34:45.013Z,101067.70
2018-07-20T04:37:13.937Z,101066.84
2018-07-20T04:39:42.835Z,101063.31
2018-07-20T04:42:11.756Z,101063.89
2018-07-20T04:44:40.668Z,101063.55
2018-07-20T04:47:09.555Z,101061.95
2018-07-20T04:49:38.449Z,101066.33
2018-07-20T04:52:07.388Z,101064.41
2018-07-20T04:54:36.287Z,101069.34
2018-07-20T04:57:05.221Z,101064.70
2018-07-20T04:59:34.343Z,101070.45
2018-07-20T05:02:03.347Z,101072.60
2018-07-20T05:04:32.268Z,101072.37
2018-07-20T05:07:01.155Z,101074.85
2018-07-20T05:09:30.080Z,101069.37
2018-07-20T05:11:58.974Z,101066.09
2018-07-20T05:14:27.891Z,101060.63
2018-07-20T05:16:56.824Z,101061.49
2018-07-20T05:19:26.773Z,101060.66
2018-07-20T05:21:56.097Z,101068.05
2018-07-20T05:24:25.088Z,101064.80
2018-07-20T05:26:53.976Z,101061.02
2018-07-20T05:29:22.877Z,101059.09
2018-07-20T05:31:51.786Z,101056.09
2018-07-20T05:34:20.685Z,101046.56
2018-07-20T05:36:49.580Z,101056.12
2018-07-20T05:39:18.549Z,101053.41
2018-07-20T05:41:47.706Z,101052.30
2018-07-20T05:44:16.810Z,101051.77
2018-07-20T05:46:45.736Z,101051.75
2018-07-20T05:49:14.661Z,101055.02
2018-07-20T05:51:43.542Z,101050.69
2018-07-20T05:54:12.447Z,101051.77
2018-07-20T05:56:41.381Z,101047.13
2018-07-20T05:59:10.269Z,101048.23
2018-07-20T06:01:39.205Z,101047.95
2018-07-20T06:04:08.686Z,101045.52
2018-07-20T06:06:37.490Z,101045.51
2018-07-20T06:09:09.196Z,101043.02
2018-07-20T06:11:38.103Z,101043.57
2018-07-20T06:14:07.492Z,101040.27
2018-07-20T06:16:36.424Z,101044.13
2018-07-20T06:19:05.408Z,101042.74
2018-07-20T06:21:34.262Z,101042.45
2018-07-20T06:24:03.159Z,101044.34
2018-07-20T06:26:32.059Z,101044.34
2018-07-20T06:29:00.935Z,101047.59
2018-07-20T06:31:29.850Z,101046.78
2018-07-20T06:33:58.790Z,101051.92
2018-07-20T06:36:27.661Z,101054.64
2018-07-20T06:38:56.569Z,101052.96
2018-07-20T06:41:25.665Z,101044.45
2018-07-20T06:43:54.546Z,101048.81
2018-07-20T06:46:23.469Z,101047.70
2018-07-20T06:48:52.397Z,101050.97
2018-07-20T06:51:21.296Z,101052.03
2018-07-20T06:53:50.217Z,101053.67
2018-07-20T06:56:19.465Z,101053.34
2018-07-20T06:58:48.393Z,101058.52
2018-07-20T07:01:17.363Z,101055.77
2018-07-20T07:03:46.323Z,101054.03
2018-07-20T07:06:15.213Z,101054.23
2018-07-20T07:08:44.217Z,101052.32
2018-07-20T07:11:16.722Z,101048.45
2018-07-20T07:13:45.632Z,101046.88
2018-07-20T07:16:14.679Z,101045.77
2018-07-20T07:18:43.633Z,101047.39
2018-07-20T07:21:12.533Z,101050.68
2018-07-20T07:23:41.528Z,101044.63
2018-07-20T07:26:10.391Z,101049.75
2018-07-20T07:28:40.289Z,101048.64
2018-07-20T07:31:09.214Z,101046.72
2018-07-20T07:33:38.087Z,101044.19
2018-07-20T07:36:07.012Z,101047.73
2018-07-20T07:38:35.936Z,101051.84
2018-07-20T07:41:04.829Z,101054.54
2018-07-20T07:43:37.840Z,101051.22
2018-07-20T07:46:07.064Z,101048.20
2018-07-20T07:48:36.770Z,101043.77
2018-07-20T07:51:05.787Z,101047.56
2018-07-20T07:53:34.698Z,101040.32
2018-07-20T07:56:03.613Z,101041.31
2018-07-20T07:58:32.539Z,101037.45
2018-07-20T08:01:01.443Z,101036.87
2018-07-20T08:03:30.394Z,101036.99
2018-07-20T08:06:03.047Z,101030.95
2018-07-20T08:08:31.949Z,101028.89
2018-07-20T08:11:00.904Z,101026.90
2018-07-20T08:13:29.807Z,101028.62
2018-07-20T08:18:32.873Z,101023.16
2018-07-20T08:21:01.813Z,101029.69
2018-07-20T08:23:30.719Z,101025.77
2018-07-20T08:25:59.795Z,101020.83
2018-07-20T08:28:28.753Z,101017.38
2018-07-20T08:30:57.697Z,101020.55
2018-07-20T08:33:26.776Z,101019.91
2018-07-20T08:35:55.695Z,101017.13
2018-07-20T08:38:24.666Z,101015.67
2018-07-20T08:40:53.562Z,101010.03
2018-07-20T08:43:22.543Z,101016.02
2018-07-20T08:45:51.623Z,101011.48
2018-07-20T08:48:20.704Z,101010.06
2018-07-20T08:50:49.733Z,101008.69
2018-07-20T08:53:19.667Z,101010.81
2018-07-20T08:55:48.620Z,101009.94
2018-07-20T08:58:17.554Z,101013.66
2018-07-20T09:00:49.554Z,101004.77
2018-07-20T09:03:18.552Z,101007.47
2018-07-20T09:05:47.458Z,101004.98
2018-07-20T09:08:16.523Z,100997.05
2018-07-20T09:10:45.626Z,100999.00
2018-07-20T09:13:14.628Z,101001.97
2018-07-20T09:15:43.521Z,100996.42
2018-07-20T09:18:12.467Z,100986.72
2018-07-20T09:20:41.580Z,100992.06
2018-07-20T09:23:10.381Z,100987.64
2018-07-20T09:25:39.290Z,100991.36
2018-07-20T09:28:08.366Z,100986.80
2018-07-20T09:30:37.314Z,100990.22
2018-07-20T09:33:06.332Z,100988.11
2018-07-20T09:35:35.242Z,100986.20
2018-07-20T09:38:04.150Z,100989.39
2018-07-20T09:40:33.128Z,101001.92
2018-07-20T09:43:02.022Z,100996.04
2018-07-20T09:45:30.970Z,100994.94
2018-07-20T09:47:59.934Z,100991.17
2018-07-20T09:50:28.849Z,100995.67
2018-07-20T09:52:57.819Z,100987.47
2018-07-20T09:55:26.737Z,100988.09
2018-07-20T09:57:55.637Z,100984.77
2018-07-20T10:00:29.944Z,100988.15
2018-07-20T10:02:58.838Z,100985.55
2018-07-20T10:05:27.939Z,100976.77
2018-07-20T10:07:57.051Z,100981.72
2018-07-20T10:10:26.004Z,100981.05
2018-07-20T10:12:55.141Z,100983.28
2018-07-20T10:15:24.039Z,100984.66
2018-07-20T10:17:52.946Z,100986.30
2018-07-20T10:20:21.898Z,100977.41
2018-07-20T10:22:50.994Z,100980.05
2018-07-20T10:25:19.928Z,100981.37
2018-07-20T10:27:48.832Z,100983.00
2018-07-20T10:30:17.747Z,100975.23
2018-07-20T10:32:50.480Z,100978.48
2018-07-20T10:35:19.399Z,100976.11
2018-07-20T10:37:48.335Z,100978.20
2018-07-20T10:40:17.406Z,100974.61
2018-07-20T10:42:46.564Z,100976.59
2018-07-20T10:45:15.472Z,100976.59
2018-07-20T10:47:44.454Z,100971.55
2018-07-20T10:50:13.366Z,100970.68
2018-07-20T10:52:42.313Z,100972.37
2018-07-20T10:55:11.277Z,100968.61
2018-07-20T10:57:40.188Z,100966.70
2018-07-20T11:00:09.105Z,100962.80
2018-07-20T11:02:38.009Z,100960.05
2018-07-20T11:05:06.939Z,100957.03
2018-07-20T11:07:36.022Z,100958.86
2018-07-20T11:10:05.276Z,100961.68
2018-07-20T11:12:34.225Z,100966.61
2018-07-20T11:15:03.388Z,100959.78
2018-07-20T11:17:32.300Z,100950.81
2018-07-20T11:20:01.228Z,100947.14
2018-07-20T11:22:30.127Z,100945.02
2018-07-20T11:24:59.060Z,100941.69
2018-07-20T11:27:28.009Z,100945.09
2018-07-20T11:29:56.929Z,100937.73
2018-07-20T11:32:25.865Z,100936.86
2018-07-20T11:34:54.843Z,100928.73
2018-07-20T11:37:23.729Z,100930.46
2018-07-20T11:39:52.687Z,100927.47
2018-07-20T11:42:21.657Z,100928.83
2018-07-20T11:44:50.709Z,100924.16
2018-07-20T11:47:19.638Z,100929.64
2018-07-20T11:49:48.611Z,100918.47
2018-07-20T11:52:17.553Z,100918.97
2018-07-20T11:54:46.481Z,100915.20
2018-07-20T11:57:15.599Z,100915.11
2018-07-20T11:59:44.546Z,100916.48
2018-07-20T12:02:13.503Z,100916.86
2018-07-20T12:04:42.433Z,100912.86
2018-07-20T12:07:11.428Z,100908.97
2018-07-20T12:09:40.800Z,100905.80
2018-07-20T12:12:09.875Z,100908.03
2018-07-20T12:14:38.779Z,100905.27
2018-07-20T12:17:07.749Z,100897.22
2018-07-20T12:19:36.649Z,100891.73
2018-07-20T12:22:05.549Z,100890.70
2018-07-20T12:24:34.484Z,100892.62
2018-07-20T12:27:03.352Z,100889.67
2018-07-20T12:29:32.350Z,100879.05
2018-07-20T12:32:01.276Z,100870.44
2018-07-20T12:34:30.218Z,100868.55
2018-07-20T12:36:59.157Z,100871.64
2018-07-20T12:39:28.336Z,100861.28
2018-07-20T12:41:57.467Z,100856.46
2018-07-20T12:44:26.647Z,100852.32
2018-07-20T12:46:55.877Z,100857.59
2018-07-20T12:49:24.767Z,100855.41
2018-07-20T12:51:53.705Z,100845.14
2018-07-20T12:54:22.617Z,100844.86
2018-07-20T12:56:51.556Z,100846.58
2018-07-20T12:59:20.658Z,100841.11
2018-07-20T13:01:49.542Z,100839.36
2018-07-20T13:04:22.198Z,100832.55
2018-07-20T13:06:51.118Z,100834.98
2018-07-20T13:09:21.522Z,100834.21
2018-07-20T13:11:50.520Z,100839.83
2018-07-20T13:14:19.421Z,100836.16
2018-07-20T13:16:48.341Z,100834.30
2018-07-20T13:19:17.261Z,100839.58
2018-07-20T13:21:46.180Z,100838.49
2018-07-20T13:24:15.085Z,100833.65
2018-07-20T13:26:44.040Z,100829.10
2018-07-20T13:29:12.928Z,100826.87
2018-07-20T13:31:41.842Z,100824.27
2018-07-20T13:34:10.803Z,100820.21
2018-07-20T13:36:39.705Z,100823.77
2018-07-20T13:39:10.222Z,100822.67
2018-07-20T13:41:39.926Z,100813.53
2018-07-20T13:44:08.943Z,100812.25
2018-07-20T13:46:38.071Z,100804.84
2018-07-20T13:49:07.052Z,100805.09
2018-07-20T13:51:36.031Z,100806.06
2018-07-20T13:54:04.966Z,100801.52
2018-07-20T13:56:33.955Z,100796.75
2018-07-20T13:59:02.949Z,100797.77
2018-07-20T14:01:32.491Z,100793.05
2018-07-20T14:04:01.999Z,100795.09
2018-07-20T14:06:30.927Z,100791.43
2018-07-20T14:08:59.862Z,100786.97
2018-07-20T14:11:28.939Z,100778.73
2018-07-20T14:13:57.819Z,100780.59
2018-07-20T14:16:26.724Z,100777.55
2018-07-20T14:18:55.638Z,100782.98
2018-07-20T14:21:24.582Z,100788.45
2018-07-20T14:23:53.564Z,100788.17
2018-07-20T14:26:22.577Z,100776.30
2018-07-20T14:28:51.488Z,100780.70
2018-07-20T14:31:20.505Z,100775.71
2018-07-20T14:33:49.672Z,100773.70
2018-07-20T14:36:18.611Z,100774.53
2018-07-20T14:38:47.553Z,100773.54
2018-07-20T14:41:16.509Z,100771.81
2018-07-20T14:43:45.596Z,100760.49
2018-07-20T14:46:14.527Z,100758.86
2018-07-20T14:48:47.015Z,100759.11
2018-07-20T14:51:19.258Z,100755.16
2018-07-20T14:53:48.196Z,100748.45
2018-07-20T14:56:17.144Z,100752.91
2018-07-20T14:58:46.179Z,100744.85
2018-07-20T15:01:15.105Z,100743.26
2018-07-20T15:03:44.013Z,100737.34
2018-07-20T15:06:12.906Z,100730.22
2018-07-20T15:08:41.849Z,100733.92
2018-07-20T15:11:10.735Z,100730.01
2018-07-20T15:13:39.710Z,100724.89
2018-07-20T15:16:08.655Z,100723.09
2018-07-20T15:18:37.586Z,100725.13
2018-07-20T15:21:06.623Z,100722.78
2018-07-20T15:23:35.532Z,100727.48
2018-07-20T15:26:04.438Z,100720.18
2018-07-20T15:28:33.340Z,100716.27
2018-07-20T15:31:02.227Z,100713.91
2018-07-20T15:33:31.169Z,100710.94
2018-07-20T15:36:00.082Z,100716.20
2018-07-20T15:38:29.340Z,100709.80
2018-07-20T15:40:58.816Z,100710.22
2018-07-20T15:43:27.788Z,100703.72
2018-07-20T15:46:05.861Z,100701.58
2018-07-20T15:48:25.700Z,100703.02
2018-07-20T15:50:54.648Z,100699.64
2018-07-20T15:53:38.579Z,100698.11
2018-07-20T15:55:53.488Z,100709.39
2018-07-20T15:58:23.066Z,100700.28
2018-07-20T16:00:53.188Z,100702.41
2018-07-20T16:03:22.964Z,100693.27
2018-07-20T16:05:53.062Z,100702.09
2018-07-20T16:08:21.990Z,100697.00
2018-07-20T16:10:50.939Z,100691.89
2018-07-20T16:13:19.850Z,100703.02
2018-07-20T16:15:48.757Z,100698.50
2018-07-20T16:18:17.801Z,100704.13
2018-07-20T16:20:46.718Z,100703.06
2018-07-20T16:23:15.922Z,100700.36
2018-07-20T16:25:44.893Z,100696.97
2018-07-20T16:28:13.747Z,100695.77
2018-07-20T16:30:42.662Z,100700.02
2018-07-20T16:33:11.785Z,100696.66
2018-07-20T16:35:40.706Z,100704.27
2018-07-20T16:38:09.649Z,100696.94
2018-07-20T16:40:38.621Z,100693.41
2018-07-20T16:43:07.549Z,100691.09
2018-07-20T16:45:36.524Z,100690.36
2018-07-20T16:48:05.641Z,100684.98
2018-07-20T16:50:35.057Z,100687.59
2018-07-20T16:53:04.016Z,100690.61
2018-07-20T16:55:32.908Z,100681.92
2018-07-20T16:58:01.828Z,100693.28
2018-07-20T17:00:34.166Z,100675.61
2018-07-20T17:03:03.092Z,100673.66
2018-07-20T17:05:32.067Z,100678.29
2018-07-20T17:08:01.075Z,100669.05
2018-07-20T17:10:30.032Z,100663.57
2018-07-20T17:12:58.925Z,100673.59
2018-07-20T17:15:27.829Z,100668.70
2018-07-20T17:17:56.745Z,100659.02
2018-07-20T17:20:29.197Z,100666.44
2018-07-20T17:22:58.116Z,100662.48
2018-07-20T17:25:30.624Z,100659.66
2018-07-20T17:27:59.527Z,100657.00
2018-07-20T17:30:28.425Z,100658.02
2018-07-20T17:32:57.345Z,100658.75
2018-07-20T17:35:26.453Z,100657.66
2018-07-20T17:37:55.454Z,100659.95
2018-07-20T17:40:24.366Z,100662.66
2018-07-20T17:42:53.585Z,100656.46
2018-07-20T17:45:22.576Z,100658.86
2018-07-20T17:47:51.530Z,100657.41
2018-07-20T17:50:20.410Z,100664.48
2018-07-20T17:52:52.885Z,100653.29
2018-07-20T17:55:21.784Z,100648.35
2018-07-20T17:57:50.733Z,100661.08
2018-07-20T18:00:19.697Z,100656.81
2018-07-20T18:02:48.645Z,100670.21
2018-07-20T18:05:17.526Z,100675.23
2018-07-20T18:07:46.497Z,100675.11
2018-07-20T18:10:15.397Z,100672.61
2018-07-20T18:12:44.301Z,100672.20
2018-07-20T18:15:13.277Z,100671.49
2018-07-20T18:17:42.301Z,100667.73
2018-07-20T18:20:12.995Z,100662.39
2018-07-20T18:22:45.658Z,100668.88
2018-07-20T18:25:16.729Z,100666.84
2018-07-20T18:27:46.692Z,100673.69
2018-07-20T18:30:15.595Z,100669.72
2018-07-20T18:32:44.608Z,100671.48
2018-07-20T18:35:13.530Z,100679.84
2018-07-20T18:37:42.480Z,100678.53
2018-07-20T18:40:11.415Z,100683.09
2018-07-20T18:42:41.227Z,100678.45
2018-07-20T18:45:10.761Z,100677.23
2018-07-20T18:47:39.774Z,100678.94
2018-07-20T18:50:09.575Z,100677.98
2018-07-20T18:52:38.742Z,100676.67
2018-07-20T18:55:07.934Z,100675.70
2018-07-20T18:57:36.820Z,100676.34
2018-07-20T19:00:06.233Z,100674.23
2018-07-20T19:02:35.117Z,100674.82
2018-07-20T19:05:04.084Z,100671.39
2018-07-20T19:07:33.003Z,100673.64
2018-07-20T19:10:02.004Z,100675.98
2018-07-20T19:12:31.462Z,100683.27
2018-07-20T19:15:00.791Z,100685.27
2018-07-20T19:17:30.425Z,100683.83
2018-07-20T19:19:59.350Z,100689.88
2018-07-20T19:22:28.378Z,100693.38
2018-07-20T19:24:57.379Z,100696.02
2018-07-20T19:27:26.385Z,100702.66
2018-07-20T19:29:55.429Z,100707.63
2018-07-20T19:32:24.414Z,100714.08
2018-07-20T19:34:53.456Z,100714.14
2018-07-20T19:37:22.688Z,100717.23
2018-07-20T19:39:51.745Z,100715.02
2018-07-20T19:42:20.588Z,100716.87
2018-07-20T19:44:49.525Z,100723.64
2018-07-20T19:47:18.451Z,100728.67
2018-07-20T19:49:47.371Z,100734.06
2018-07-20T19:52:16.318Z,100738.87
2018-07-20T19:54:45.213Z,100741.13
2018-07-20T19:57:14.430Z,100745.14
2018-07-20T19:59:43.371Z,100741.08
2018-07-20T20:02:12.422Z,100749.08
2018-07-20T20:04:41.355Z,100754.84
2018-07-20T20:07:10.304Z,100752.09
2018-07-20T20:09:39.192Z,100751.97
2018-07-20T20:12:08.124Z,100745.92
2018-07-20T20:14:37.276Z,100752.80
2018-07-20T20:17:07.162Z,100752.04
2018-07-20T20:19:36.082Z,100752.42
2018-07-20T20:22:05.439Z,100756.55
2018-07-20T20:24:34.353Z,100756.01
2018-07-20T20:27:04.288Z,100755.17
2018-07-20T20:29:33.818Z,100751.95
2018-07-20T20:32:02.902Z,100746.48
2018-07-20T20:34:32.416Z,100739.91
2018-07-20T20:37:01.309Z,100745.73
2018-07-20T20:39:30.262Z,100743.38
2018-07-20T20:41:59.226Z,100743.43
2018-07-20T20:44:28.349Z,100738.57
2018-07-20T20:46:57.251Z,100734.98
2018-07-20T20:49:26.182Z,100727.69
2018-07-20T20:51:55.071Z,100734.15
2018-07-20T20:54:23.992Z,100735.02
2018-07-20T20:56:52.987Z,100730.33
2018-07-20T20:59:22.009Z,100734.12
2018-07-20T21:01:51.054Z,100732.22
2018-07-20T21:04:19.981Z,100727.06
2018-07-20T21:06:48.875Z,100726.50
2018-07-20T21:09:17.815Z,100723.38
2018-07-20T21:11:50.554Z,100730.77
2018-07-20T21:14:19.478Z,100724.69
2018-07-20T21:16:48.396Z,100724.95
2018-07-20T21:19:17.286Z,100716.44
2018-07-20T21:21:49.487Z,100711.32
2018-07-20T21:24:18.772Z,100704.39
2018-07-20T21:26:47.709Z,100705.50
2018-07-20T21:29:16.669Z,100710.52
2018-07-20T21:31:45.554Z,100702.44
2018-07-20T21:34:14.443Z,100698.37
2018-07-20T21:36:43.349Z,100705.50
2018-07-20T21:39:13.392Z,100694.89
2018-07-20T21:41:43.492Z,100707.26
2018-07-20T21:44:12.625Z,100699.64
2018-07-20T21:46:41.649Z,100700.82
2018-07-20T21:49:10.533Z,100699.56
2018-07-20T21:51:39.679Z,100697.22
2018-07-20T21:54:12.035Z,100703.86
2018-07-20T21:56:40.995Z,100705.09
2018-07-20T21:59:09.904Z,100710.13
2018-07-20T22:01:38.837Z,100706.90
2018-07-20T22:04:07.811Z,100704.95
2018-07-20T22:06:36.743Z,100709.13
2018-07-20T22:09:08.169Z,100704.80
2018-07-20T22:11:37.437Z,100703.71
2018-07-20T22:14:06.779Z,100695.22
2018-07-20T22:16:36.211Z,100700.50
2018-07-20T22:19:05.157Z,100695.39
2018-07-20T22:21:34.181Z,100697.13
2018-07-20T22:24:03.088Z,100705.05
2018-07-20T22:26:32.113Z,100700.88
2018-07-20T22:29:01.005Z,100705.83
2018-07-20T22:31:30.298Z,100700.19
2018-07-20T22:33:59.197Z,100704.19
2018-07-20T22:36:28.219Z,100700.56
2018-07-20T22:38:57.749Z,100704.45
2018-07-20T22:41:26.652Z,100699.97
2018-07-20T22:43:55.656Z,100701.65
2018-07-20T22:46:24.542Z,100705.41
2018-07-20T22:48:53.484Z,100697.96
2018-07-20T22:51:22.435Z,100690.66
2018-07-20T22:53:51.444Z,100684.39
2018-07-20T22:56:20.948Z,100684.13
2018-07-20T22:58:49.864Z,100678.09
2018-07-20T23:01:19.073Z,100678.05
2018-07-20T23:03:48.379Z,100678.05
2018-07-20T23:06:17.514Z,100679.67
2018-07-20T23:08:46.394Z,100677.16
2018-07-20T23:11:15.287Z,100682.70
2018-07-20T23:13:44.611Z,100684.81
2018-07-20T23:16:13.862Z,100688.31
2018-07-20T23:18:43.100Z,100690.46
2018-07-20T23:21:12.007Z,100691.52
2018-07-20T23:23:40.954Z,100692.74
2018-07-20T23:26:09.895Z,100684.97
2018-07-20T23:28:38.777Z,100680.91
2018-07-20T23:31:11.305Z,100689.69
2018-07-20T23:33:40.210Z,100682.88
2018-07-20T23:36:09.118Z,100680.38
2018-07-20T23:38:38.023Z,100675.15
2018-07-20T23:41:07.461Z,100676.38
2018-07-20T23:43:40.040Z,100678.52
2018-07-20T23:46:08.989Z,100677.44
2018-07-20T23:48:37.889Z,100681.92
2018-07-20T23:51:06.890Z,100684.13
2018-07-20T23:53:35.788Z,100680.86
2018-07-20T23:56:04.847Z,100680.86
2018-07-20T23:58:33.754Z,100680.92
